AirNav   Duncan Aviation - Near you to keep you flying
 
 1809 users online  

PA18 Buzzards Field Airport
Mill Hall, Pennsylvania, USA

GOING TO MILL HALL?


FAA INFORMATION EFFECTIVE 27 JANUARY 2022

Location

FAA Identifier: PA18
Lat/Long: 41-05-39.2480N 077-24-51.9320W
41-05.654133N 077-24.865533W
41.0942356,-77.4144256
(estimated)
Elevation: 760 ft. / 232 m (estimated)
Variation: 10W (1985)
From city: 5 miles W of MILL HALL, PA
Time zone: UTC -5 (UTC -4 during Daylight Saving Time)
Zip code: 17751

Airport Operations

Airport use: CLOSED INDEFINITELY
Activation date: 09/1988
Control tower: no
ARTCC: NEW YORK CENTER
FSS: WILLIAMSPORT FLIGHT SERVICE STATION
Attendance: UNATNDD
Wind indicator: yes
Segmented circle: no

Nearby radio navigation aids

VOR radial/distance  VOR name  Freq  Var
PSBr078/28.3PHILIPSBURG VORTAC115.5010W
SEGr315/30.2SELINSGROVE VOR/DME110.4008W
FQMr252/32.4WILLIAMSPORT VOR/DME114.4009W
ETGr112/33.7KEATING VORTAC116.0010W
MIPr286/34.2MILTON VORTAC109.2009W
SLTr143/35.5SLATE RUN VORTAC113.9008W
SFKr188/36.1STONYFORK VOR/DME108.6008W

Airport Services

Runway Information

Runway 9/27

Dimensions: 2000 x 100 ft. / 610 x 30 m
Surface: turf
RUNWAY 9  RUNWAY 27
Traffic pattern: leftleft

Airport Ownership and Management from official FAA records

Ownership: Privately-owned
Owner: GREGORY L. NEDURIAN
112 WEST MAIN ST.
LOCK HAVEN, PA 17745
Phone 717-748-1093
Manager: GREGORY L. NEDURIAN
112 WEST MAIN ST.
LOCK HAVEN, PA 17745
Phone 717 748-1093

Airport Operational Statistics

Aircraft based on the field: 1
Single engine airplanes: 1
    

Additional Remarks

FOR CD CTC NEW YORK ARTCC AT 631-468-1425.
(ARPT STATUS) ARPT CLSD INDEFLY.

Instrument Procedures

There are no published instrument procedures at PA18.

Some nearby airports with instrument procedures:

KLHV - William T Piper Memorial Airport (3 nm N)
N96 - Bellefonte Airport (22 nm SW)
KIPT - Williamsport Regional Airport (24 nm E)
KUNV - University Park Airport (24 nm SW)
KRVL - Mifflin County Airport (27 nm S)
 
Loc | Ops | Rwys | IFR | FBO | Links
Com | Nav | Svcs | Stats | Notes
Area around PA18 (Buzzards Field Airport)
 
Road maps at: MapQuest Bing Google
 
Aerial photo
No photo
 
Sectional chart

 
Airport distance calculator
Flying to Buzzards Field Airport? Find the distance to fly.

From to PA18

Sunrise and sunset
Times for 28-Jan-2022
 Local
(UTC-5)
 Zulu
(UTC)
Morning civil twilight06:5611:56
Sunrise07:2512:25
Sunset17:2022:20
Evening civil twilight17:5022:50

Current date and time
Zulu (UTC)  28-Jan-2022 21:47:39
Local (UTC-5)  28-Jan-2022 16:47:39
 
METAR
KUNV 
24nm SW 
281953Z 00000KT 2SM -SN SCT009 OVC017 M02/M04 A2999
KIPT 
24nm NE 
282054Z VRB04KT 1 1/4SM -SN FEW011 FEW014 OVC021 M02/M05 A3005 RMK AO2 SLP182 P0000 60000 T10221050 55003
KRVL 
27nm S 
282135Z AUTO 1SM -RA BKN001 OVC010 M01/M01 A2999 RMK AO2
KSEG 
30nm SE 
282053Z AUTO 01005KT 6SM HZ BKN017 OVC024 M01/M03 A3004 RMK AO2 SLP176 60000 T10061033 56017
KN38 
38nm N 
282135Z AUTO 01010KT 8SM OVC012 M07/M09 A2999 RMK AO2
KFIG 
45nm W 
282054Z AUTO 06004KT 10SM OVC042 M02/M06 A2997 RMK AO2 SLP167 60000 T10221056 56012
TAF
KUNV 
24nm SW 
281730Z 2818/2918 00000KT 4SM -SN SCT010 OVC020 FM281900 00000KT 1 1/2SM -SN BR SCT009 OVC010 FM282000 03002KT 2SM -SN BR OVC010 FM290000 02006KT 6SM BR VCSH OVC025 FM290300 36008G15KT P6SM OVC035
KIPT 
24nm NE 
281730Z 2818/2918 00000KT 1 1/2SM -SN BR OVC030 FM282200 35004KT 5SM -SN OVC025 FM290000 36008G15KT 6SM BR VCSH BKN025 FM290300 30009G16KT P6SM OVC040
NOTAMs
Click for the latest NOTAMs
NOTAMs are issued by the DoD/FAA and will open in a separate window not controlled by AirNav.

 

 
 

Would you like to see your business listed on this page?

 If your business provides an interesting product or service to pilots, flight crews, aircraft, or users of the Buzzards Field Airport, you should consider listing it here.  To start the listing process, click on the button below
 
Add a business
 

Other Pages about Buzzards Field Airport

Update a link
 
Copyright © AirNav, LLC. All rights reserved. Privacy Policy  Contact